createdAt,value
2023-05-11T00:02:09.523Z,85.09
2023-05-11T00:04:41.811Z,85.47
2023-05-11T00:07:11.316Z,84.74
2023-05-11T00:09:42.145Z,85.99
2023-05-11T00:12:11.537Z,88.43
2023-05-11T00:14:41.170Z,89.42
2023-05-11T00:17:11.000Z,90.94
2023-05-11T00:19:42.895Z,88.79
2023-05-11T00:22:12.461Z,86.83
2023-05-11T00:24:41.895Z,86.70
2023-05-11T00:27:11.421Z,87.74
2023-05-11T00:29:40.837Z,88.00
2023-05-11T00:32:10.154Z,86.14
2023-05-11T00:34:39.496Z,85.99
2023-05-11T00:37:11.421Z,88.33
2023-05-11T00:39:41.591Z,87.48
2023-05-11T00:42:10.935Z,85.97
2023-05-11T00:44:40.279Z,85.33
2023-05-11T00:47:10.123Z,86.51
2023-05-11T00:49:40.026Z,89.32
2023-05-11T00:52:12.364Z,88.31
2023-05-11T00:54:43.039Z,88.21
2023-05-11T00:57:12.512Z,86.73
2023-05-11T00:59:41.964Z,87.22
2023-05-11T01:02:12.058Z,87.99
2023-05-11T01:04:41.598Z,87.89
2023-05-11T01:07:18.582Z,88.32
2023-05-11T01:09:56.302Z,86.20
2023-05-11T01:12:36.424Z,87.16
2023-05-11T01:15:11.794Z,87.71
2023-05-11T01:17:52.056Z,88.36
2023-05-11T01:20:26.914Z,87.46
2023-05-11T01:23:27.819Z,87.59
2023-05-11T01:26:22.197Z,87.75
2023-05-11T01:29:06.542Z,90.17
2023-05-11T01:31:43.326Z,87.56
2023-05-11T01:34:16.120Z,88.19
2023-05-11T01:36:54.942Z,90.88
2023-05-11T01:39:29.273Z,89.45
2023-05-11T01:42:01.153Z,87.79
2023-05-11T01:44:34.627Z,85.65
2023-05-11T01:47:08.694Z,85.76
2023-05-11T01:49:41.585Z,85.18
2023-05-11T01:52:12.120Z,85.08
2023-05-11T01:54:42.928Z,85.34
2023-05-11T01:57:15.281Z,84.27
2023-05-11T01:59:47.130Z,85.32
2023-05-11T02:02:22.650Z,84.97
2023-05-11T02:04:53.968Z,85.51
2023-05-11T02:07:25.547Z,84.35
2023-05-11T02:09:59.414Z,86.23
2023-05-11T02:12:30.289Z,88.71
2023-05-11T02:15:00.611Z,88.69
2023-05-11T02:17:35.068Z,87.94
2023-05-11T02:20:06.411Z,87.82
2023-05-11T02:22:37.209Z,86.25
2023-05-11T02:25:07.889Z,85.39
2023-05-11T02:27:37.333Z,85.16
2023-05-11T02:30:08.724Z,85.45
2023-05-11T02:32:44.992Z,85.94
2023-05-11T02:35:20.359Z,84.92
2023-05-11T02:37:50.959Z,85.90
2023-05-11T02:40:23.314Z,85.04
2023-05-11T02:43:00.066Z,85.70
2023-05-11T02:45:34.040Z,86.16
2023-05-11T02:48:10.531Z,85.49
2023-05-11T02:50:43.532Z,85.62
2023-05-11T02:53:17.372Z,87.52
2023-05-11T02:55:46.895Z,87.37
2023-05-11T02:58:16.654Z,87.40
2023-05-11T03:00:46.665Z,87.86
2023-05-11T03:03:18.880Z,86.96
2023-05-11T03:05:48.398Z,87.02
2023-05-11T03:08:17.747Z,88.13
2023-05-11T03:10:47.766Z,87.52
2023-05-11T03:13:17.652Z,88.90
2023-05-11T03:15:47.459Z,87.39
2023-05-11T03:18:21.725Z,85.02
2023-05-11T03:20:52.936Z,85.24
2023-05-11T03:23:22.688Z,85.84
2023-05-11T03:25:52.185Z,86.74
2023-05-11T03:28:22.903Z,87.17
2023-05-11T03:30:54.715Z,86.04
2023-05-11T03:33:26.736Z,87.63
2023-05-11T03:35:57.831Z,86.86
2023-05-11T03:38:30.977Z,86.24
2023-05-11T03:41:01.458Z,87.67
2023-05-11T03:43:34.660Z,87.83
2023-05-11T03:46:05.630Z,89.90
2023-05-11T03:48:37.876Z,88.80
2023-05-11T03:51:08.252Z,86.42
2023-05-11T03:53:37.859Z,85.96
2023-05-11T03:56:08.027Z,86.41
2023-05-11T03:58:41.198Z,87.26
2023-05-11T04:01:11.640Z,87.07
2023-05-11T04:03:52.718Z,86.22
2023-05-11T04:06:23.368Z,86.50
2023-05-11T04:08:53.134Z,85.81
2023-05-11T04:11:23.105Z,85.41
2023-05-11T04:13:52.457Z,85.47
2023-05-11T04:16:22.197Z,86.34
2023-05-11T04:18:54.125Z,86.61
2023-05-11T04:21:23.517Z,87.71
2023-05-11T04:23:52.840Z,88.72
2023-05-11T04:26:22.574Z,87.49
2023-05-11T04:28:52.036Z,87.55
2023-05-11T04:31:21.439Z,87.23
2023-05-11T04:33:50.898Z,90.55
2023-05-11T04:36:23.137Z,90.85
2023-05-11T04:38:53.381Z,90.67
2023-05-11T04:41:22.876Z,89.38
2023-05-11T04:43:52.227Z,90.01
2023-05-11T04:46:23.113Z,90.38
2023-05-11T04:48:52.772Z,90.97
2023-05-11T04:51:24.738Z,90.46
2023-05-11T04:53:54.100Z,92.30
2023-05-11T04:56:23.437Z,90.50
2023-05-11T04:58:53.390Z,94.58
2023-05-11T05:01:22.783Z,94.97
2023-05-11T05:03:52.515Z,91.91
2023-05-11T05:06:24.461Z,91.78
2023-05-11T05:08:53.761Z,93.25
2023-05-11T05:11:23.491Z,93.11
2023-05-11T05:13:53.511Z,92.89
2023-05-11T05:16:22.901Z,90.48
2023-05-11T05:18:52.657Z,91.39
2023-05-11T05:21:24.899Z,90.23
2023-05-11T05:23:54.209Z,92.24
2023-05-11T05:26:24.698Z,91.42
2023-05-11T05:28:54.056Z,89.86
2023-05-11T05:31:23.595Z,90.81
2023-05-11T05:33:53.006Z,89.30
2023-05-11T05:36:24.883Z,91.38
2023-05-11T05:38:54.275Z,91.52
2023-05-11T05:41:24.401Z,89.35
2023-05-11T05:43:54.073Z,91.91
2023-05-11T05:46:23.552Z,94.50
2023-05-11T05:48:52.901Z,92.39
2023-05-11T05:51:25.212Z,92.78
2023-05-11T05:53:54.534Z,92.06
2023-05-11T05:56:24.235Z,91.43
2023-05-11T05:58:53.614Z,92.45
2023-05-11T06:01:22.975Z,94.49
2023-05-11T06:03:52.532Z,91.51
2023-05-11T06:06:24.694Z,92.07
2023-05-11T06:08:53.998Z,93.25
2023-05-11T06:11:23.305Z,92.70
2023-05-11T06:13:52.657Z,93.75
2023-05-11T06:16:22.093Z,93.85
2023-05-11T06:18:51.481Z,91.33
2023-05-11T06:21:20.858Z,93.13
2023-05-11T06:23:52.920Z,90.72
2023-05-11T06:26:25.274Z,92.52
2023-05-11T06:28:54.750Z,93.04
2023-05-11T06:31:24.563Z,92.87
2023-05-11T06:33:54.311Z,95.53
2023-05-11T06:36:23.846Z,96.44
2023-05-11T06:38:55.791Z,95.02
2023-05-11T06:41:25.817Z,95.82
2023-05-11T06:43:55.453Z,98.28
2023-05-11T06:46:25.125Z,96.62
2023-05-11T06:48:54.496Z,96.67
2023-05-11T06:51:24.197Z,96.28
2023-05-11T06:53:56.144Z,99.21
2023-05-11T06:56:25.452Z,98.08
2023-05-11T06:58:54.738Z,96.68
2023-05-11T07:01:24.291Z,97.81
2023-05-11T07:03:56.718Z,97.52
2023-05-11T07:06:26.110Z,98.25
2023-05-11T07:08:58.024Z,97.62
2023-05-11T07:11:28.233Z,98.75
2023-05-11T07:13:57.535Z,99.05
2023-05-11T07:16:26.965Z,99.02
2023-05-11T07:18:56.363Z,100.00
2023-05-11T07:21:25.820Z,99.97
2023-05-11T07:23:57.737Z,100.00
2023-05-11T07:26:27.193Z,99.01
2023-05-11T07:28:59.407Z,98.92
2023-05-11T07:31:30.274Z,98.56
2023-05-11T07:34:00.215Z,97.57
2023-05-11T07:36:30.089Z,99.23
2023-05-11T07:39:03.812Z,98.25
2023-05-11T07:41:33.197Z,96.56
2023-05-11T07:44:02.997Z,98.19
2023-05-11T07:46:32.481Z,98.04
2023-05-11T07:49:14.448Z,98.57
2023-05-11T07:51:46.402Z,100.00
2023-05-11T07:54:19.477Z,100.00
2023-05-11T07:56:50.562Z,100.00
2023-05-11T07:59:19.927Z,100.00
2023-05-11T08:01:49.375Z,99.01
2023-05-11T08:04:18.796Z,98.75
2023-05-11T08:06:48.398Z,99.94
2023-05-11T08:09:20.340Z,98.46
2023-05-11T08:11:49.801Z,97.55
2023-05-11T08:14:19.181Z,98.43
2023-05-11T08:16:49.817Z,98.63
2023-05-11T08:19:19.221Z,98.13
2023-05-11T08:21:49.223Z,97.98
2023-05-11T08:24:21.545Z,98.24
2023-05-11T08:26:51.341Z,99.46
2023-05-11T08:29:20.758Z,100.00
2023-05-11T08:31:50.196Z,100.00
2023-05-11T08:34:20.277Z,100.00
2023-05-11T08:36:49.901Z,100.00
2023-05-11T08:39:38.910Z,99.30
2023-05-11T08:42:14.109Z,98.37
2023-05-11T08:44:46.187Z,100.00
2023-05-11T08:49:48.504Z,100.00
2023-05-11T08:52:20.949Z,100.00
2023-05-11T08:54:53.371Z,100.00
2023-05-11T08:57:23.187Z,100.00
2023-05-11T08:59:54.787Z,100.00
2023-05-11T09:02:24.182Z,100.00
2023-05-11T09:04:54.510Z,100.00
2023-05-11T09:07:25.002Z,100.00
2023-05-11T09:09:58.224Z,100.00
2023-05-11T09:12:28.609Z,100.00
2023-05-11T09:15:01.861Z,100.00
2023-05-11T09:17:31.701Z,100.00
2023-05-11T09:20:05.408Z,100.00
2023-05-11T09:22:36.710Z,100.00
2023-05-11T09:25:09.645Z,100.00
2023-05-11T09:27:44.056Z,100.00
2023-05-11T09:32:55.525Z,100.00
2023-05-11T09:35:26.631Z,100.00
2023-05-11T09:38:05.199Z,100.00
2023-05-11T09:40:40.114Z,100.00
2023-05-11T09:43:19.740Z,100.00
2023-05-11T09:45:50.591Z,100.00
2023-05-11T09:48:31.957Z,100.00
2023-05-11T09:51:04.521Z,100.00
2023-05-11T09:53:38.797Z,100.00
2023-05-11T09:56:11.242Z,100.00
2023-05-11T09:58:52.586Z,100.00
2023-05-11T10:01:32.487Z,100.00
2023-05-11T10:04:13.911Z,100.00
2023-05-11T10:06:53.977Z,100.00
2023-05-11T10:09:27.374Z,100.00
2023-05-11T10:11:59.561Z,100.00
2023-05-11T10:14:31.350Z,100.00
2023-05-11T10:17:02.384Z,100.00
2023-05-11T10:19:32.982Z,100.00
2023-05-11T10:22:03.868Z,100.00
2023-05-11T10:24:35.201Z,100.00
2023-05-11T10:27:08.645Z,100.00
2023-05-11T10:29:40.139Z,100.00
2023-05-11T10:32:10.947Z,100.00
2023-05-11T10:34:40.975Z,100.00
2023-05-11T10:37:11.645Z,100.00
2023-05-11T10:39:42.253Z,100.00
2023-05-11T10:42:39.005Z,100.00
2023-05-11T10:45:22.284Z,100.00
2023-05-11T10:48:17.190Z,100.00
2023-05-11T10:51:08.132Z,100.00
2023-05-11T10:53:57.780Z,100.00
2023-05-11T10:56:47.426Z,100.00
2023-05-11T10:59:42.171Z,100.00
2023-05-11T11:02:11.967Z,100.00
2023-05-11T11:04:46.015Z,100.00
2023-05-11T11:07:18.445Z,100.00
2023-05-11T11:09:57.076Z,100.00
2023-05-11T11:12:27.895Z,100.00
2023-05-11T11:15:01.730Z,100.00
2023-05-11T11:17:33.020Z,100.00
2023-05-11T11:20:04.522Z,100.00
2023-05-11T11:22:47.708Z,100.00
2023-05-11T11:25:18.956Z,100.00
2023-05-11T11:28:00.069Z,100.00
2023-05-11T11:30:33.582Z,100.00
2023-05-11T11:33:33.085Z,100.00
2023-05-11T11:36:02.809Z,100.00
2023-05-11T11:38:34.291Z,100.00
2023-05-11T11:41:04.436Z,100.00
2023-05-11T11:43:54.325Z,100.00
2023-05-11T11:46:32.988Z,100.00
2023-05-11T11:49:12.405Z,100.00
2023-05-11T11:51:43.056Z,100.00
2023-05-11T11:54:12.670Z,100.00
2023-05-11T11:56:43.931Z,100.00
2023-05-11T11:59:15.610Z,100.00
2023-05-11T12:01:48.305Z,100.00
2023-05-11T12:04:34.538Z,100.00
2023-05-11T12:07:06.068Z,100.00
2023-05-11T12:09:37.048Z,100.00
2023-05-11T12:12:09.392Z,100.00
2023-05-11T12:14:39.566Z,100.00
2023-05-11T12:17:15.468Z,100.00
2023-05-11T12:19:48.708Z,100.00
2023-05-11T12:22:24.686Z,100.00
2023-05-11T12:24:54.103Z,100.00
2023-05-11T12:27:23.465Z,100.00
2023-05-11T12:29:53.296Z,100.00
2023-05-11T12:32:34.739Z,100.00
2023-05-11T12:35:07.053Z,100.00
2023-05-11T12:37:37.704Z,100.00
2023-05-11T12:40:08.310Z,100.00
2023-05-11T12:42:38.522Z,100.00
2023-05-11T12:45:09.202Z,100.00
2023-05-11T12:47:41.747Z,100.00
2023-05-11T12:50:12.611Z,100.00
2023-05-11T12:52:42.295Z,100.00
2023-05-11T12:55:12.099Z,100.00
2023-05-11T12:57:43.264Z,100.00
2023-05-11T13:00:14.990Z,100.00
2023-05-11T13:02:52.813Z,100.00
2023-05-11T13:05:27.019Z,100.00
2023-05-11T13:08:04.102Z,100.00
2023-05-11T13:10:33.770Z,100.00
2023-05-11T13:13:03.177Z,100.00
2023-05-11T13:15:32.728Z,100.00
2023-05-11T13:18:05.447Z,100.00
2023-05-11T13:20:36.438Z,100.00
2023-05-11T13:23:08.289Z,100.00
2023-05-11T13:25:54.615Z,100.00
2023-05-11T13:28:25.617Z,100.00
2023-05-11T13:31:04.905Z,100.00
2023-05-11T13:33:37.758Z,100.00
2023-05-11T13:36:07.813Z,100.00
2023-05-11T13:38:37.473Z,100.00
2023-05-11T13:41:06.927Z,100.00
2023-05-11T13:43:36.414Z,100.00
2023-05-11T13:46:06.363Z,100.00
2023-05-11T13:48:38.392Z,100.00
2023-05-11T13:51:08.240Z,100.00
2023-05-11T13:53:37.659Z,100.00
2023-05-11T13:56:07.917Z,100.00
2023-05-11T13:58:38.065Z,100.00
2023-05-11T14:01:08.706Z,100.00
2023-05-11T14:03:42.307Z,100.00
2023-05-11T14:06:11.773Z,100.00
2023-05-11T14:08:41.081Z,100.00
2023-05-11T14:11:10.441Z,100.00
2023-05-11T14:13:39.756Z,100.00
2023-05-11T14:16:10.157Z,100.00
2023-05-11T14:18:42.699Z,100.00
2023-05-11T14:21:12.265Z,100.00
2023-05-11T14:23:49.449Z,100.00
2023-05-11T14:26:27.532Z,100.00
2023-05-11T14:28:56.941Z,100.00
2023-05-11T14:31:27.042Z,100.00
2023-05-11T14:33:59.593Z,100.00
2023-05-11T14:36:29.166Z,100.00
2023-05-11T14:38:58.588Z,100.00
2023-05-11T14:41:28.372Z,100.00
2023-05-11T14:43:58.153Z,100.00
2023-05-11T14:46:27.586Z,100.00
2023-05-11T14:48:59.972Z,100.00
2023-05-11T14:51:29.270Z,100.00
2023-05-11T14:53:58.608Z,100.00
2023-05-11T14:56:28.135Z,100.00
2023-05-11T14:58:58.322Z,100.00
2023-05-11T15:01:27.700Z,100.00
2023-05-11T15:03:59.863Z,100.00
2023-05-11T15:06:30.400Z,100.00
2023-05-11T15:08:59.905Z,100.00
2023-05-11T15:11:29.215Z,100.00
2023-05-11T15:13:58.544Z,100.00
2023-05-11T15:16:28.424Z,100.00
2023-05-11T15:19:00.621Z,100.00
2023-05-11T15:21:30.516Z,100.00
2023-05-11T15:23:59.849Z,100.00
2023-05-11T15:26:29.283Z,100.00
2023-05-11T15:28:59.072Z,100.00
2023-05-11T15:31:28.718Z,100.00
2023-05-11T15:34:01.362Z,100.00
2023-05-11T15:36:35.927Z,100.00
2023-05-11T15:39:05.640Z,100.00
2023-05-11T15:41:36.824Z,100.00
2023-05-11T15:44:06.697Z,100.00
2023-05-11T15:46:37.391Z,100.00
2023-05-11T15:49:09.369Z,100.00
2023-05-11T15:51:38.734Z,100.00
2023-05-11T15:54:08.166Z,100.00
2023-05-11T15:56:37.521Z,100.00
2023-05-11T15:59:07.452Z,100.00
2023-05-11T16:01:36.796Z,100.00
2023-05-11T16:04:08.923Z,100.00
2023-05-11T16:06:38.287Z,100.00
2023-05-11T16:09:10.116Z,100.00
2023-05-11T16:11:39.682Z,100.00
2023-05-11T16:14:09.072Z,100.00
2023-05-11T16:16:39.500Z,100.00
2023-05-11T16:19:11.554Z,100.00
2023-05-11T16:21:41.271Z,100.00
2023-05-11T16:24:10.917Z,100.00
2023-05-11T16:26:40.237Z,100.00
2023-05-11T16:29:10.683Z,100.00
2023-05-11T16:31:40.099Z,100.00
2023-05-11T16:34:12.241Z,100.00
2023-05-11T16:36:41.550Z,100.00
2023-05-11T16:39:11.143Z,100.00
2023-05-11T16:41:40.439Z,100.00
2023-05-11T16:44:09.898Z,100.00
2023-05-11T16:46:39.365Z,100.00
2023-05-11T16:49:08.705Z,100.00
2023-05-11T16:51:40.707Z,100.00
2023-05-11T16:54:10.705Z,100.00
2023-05-11T16:56:40.168Z,100.00
2023-05-11T16:59:10.719Z,100.00
2023-05-11T17:01:40.232Z,100.00
2023-05-11T17:04:10.387Z,100.00
2023-05-11T17:06:42.366Z,100.00
2023-05-11T17:09:11.817Z,100.00
2023-05-11T17:11:41.160Z,100.00
2023-05-11T17:14:10.519Z,100.00
2023-05-11T17:16:39.949Z,100.00
2023-05-11T17:19:09.579Z,100.00
2023-05-11T17:21:38.990Z,100.00
2023-05-11T17:24:11.267Z,100.00
2023-05-11T17:26:47.812Z,100.00
2023-05-11T17:29:18.027Z,100.00
2023-05-11T17:31:51.702Z,100.00
2023-05-11T17:34:24.581Z,100.00
2023-05-11T17:36:56.757Z,100.00
2023-05-11T17:39:28.662Z,100.00
2023-05-11T17:41:58.272Z,100.00
2023-05-11T17:44:28.320Z,100.00
2023-05-11T17:46:57.629Z,100.00
2023-05-11T17:49:27.026Z,100.00
2023-05-11T17:51:56.365Z,100.00
2023-05-11T17:54:29.637Z,100.00
2023-05-11T17:57:01.604Z,100.00
2023-05-11T17:59:30.954Z,100.00
2023-05-11T18:02:00.645Z,100.00
2023-05-11T18:04:30.102Z,100.00
2023-05-11T18:07:00.411Z,100.00
2023-05-11T18:09:32.340Z,100.00
2023-05-11T18:12:05.833Z,100.00
2023-05-11T18:14:35.171Z,100.00
2023-05-11T18:17:05.387Z,100.00
2023-05-11T18:19:34.760Z,100.00
2023-05-11T18:22:04.479Z,100.00
2023-05-11T18:24:36.471Z,100.00
2023-05-11T18:27:05.916Z,100.00
2023-05-11T18:29:37.496Z,100.00
2023-05-11T18:32:07.206Z,100.00
2023-05-11T18:34:41.243Z,100.00
2023-05-11T18:37:10.973Z,100.00
2023-05-11T18:39:43.425Z,100.00
2023-05-11T18:42:12.924Z,100.00
2023-05-11T18:44:42.729Z,100.00
2023-05-11T18:47:12.777Z,100.00
2023-05-11T18:49:42.200Z,100.00
2023-05-11T18:52:12.748Z,100.00
2023-05-11T18:54:44.821Z,100.00
2023-05-11T18:57:18.844Z,100.00
2023-05-11T18:59:48.184Z,100.00
2023-05-11T19:02:17.624Z,100.00
2023-05-11T19:04:47.316Z,100.00
2023-05-11T19:07:19.916Z,100.00
2023-05-11T19:09:52.179Z,100.00
2023-05-11T19:12:21.581Z,100.00
2023-05-11T19:14:50.932Z,100.00
2023-05-11T19:17:20.285Z,100.00
2023-05-11T19:19:49.609Z,100.00
2023-05-11T19:22:21.456Z,100.00
2023-05-11T19:24:53.482Z,100.00
2023-05-11T19:27:22.904Z,100.00
2023-05-11T19:29:52.801Z,100.00
2023-05-11T19:32:23.558Z,100.00
2023-05-11T19:34:52.995Z,100.00
2023-05-11T19:37:22.346Z,100.00
2023-05-11T19:39:59.536Z,100.00
2023-05-11T19:42:40.752Z,100.00
2023-05-11T19:45:14.388Z,100.00
2023-05-11T19:47:43.859Z,100.00
2023-05-11T19:50:14.774Z,100.00
2023-05-11T19:52:44.259Z,100.00
2023-05-11T19:55:16.293Z,100.00
2023-05-11T19:57:45.689Z,100.00
2023-05-11T20:00:15.527Z,100.00
2023-05-11T20:02:44.966Z,100.00
2023-05-11T20:05:14.648Z,100.00
2023-05-11T20:07:44.009Z,100.00
2023-05-11T20:10:16.250Z,100.00
2023-05-11T20:12:45.628Z,99.30
2023-05-11T20:15:15.227Z,98.83
2023-05-11T20:17:44.693Z,98.29
2023-05-11T20:20:14.845Z,98.17
2023-05-11T20:22:44.528Z,96.68
2023-05-11T20:25:18.652Z,97.91
2023-05-11T20:27:48.719Z,97.77
2023-05-11T20:30:18.731Z,98.83
2023-05-11T20:35:22.332Z,99.13
2023-05-11T20:37:51.970Z,99.05
2023-05-11T20:40:25.482Z,99.09
2023-05-11T20:42:55.096Z,97.75
2023-05-11T20:45:24.727Z,97.82
2023-05-11T20:47:54.149Z,97.05
2023-05-11T20:50:24.724Z,96.00
2023-05-11T20:52:54.126Z,96.06
2023-05-11T20:55:26.307Z,95.84
2023-05-11T20:57:55.694Z,95.71
2023-05-11T21:00:25.298Z,96.27
2023-05-11T21:02:54.850Z,96.73
2023-05-11T21:05:25.544Z,96.29
2023-05-11T21:07:55.093Z,96.25
2023-05-11T21:10:27.268Z,95.74
2023-05-11T21:12:56.705Z,95.71
2023-05-11T21:15:26.071Z,95.41
2023-05-11T21:17:55.482Z,95.58
2023-05-11T21:20:24.873Z,96.28
2023-05-11T21:22:54.288Z,96.16
2023-05-11T21:25:23.743Z,97.86
2023-05-11T21:27:56.796Z,95.31
2023-05-11T21:30:26.141Z,94.69
2023-05-11T21:32:55.553Z,95.38
2023-05-11T21:35:25.145Z,95.08
2023-05-11T21:37:54.511Z,95.23
2023-05-11T21:40:23.874Z,94.85
2023-05-11T21:42:55.847Z,94.22
2023-05-11T21:45:25.375Z,93.51
2023-05-11T21:47:54.966Z,93.12
2023-05-11T21:50:24.603Z,93.21
2023-05-11T21:52:54.153Z,92.62
2023-05-11T21:55:23.900Z,92.28
2023-05-11T21:57:55.907Z,91.74
2023-05-11T22:00:26.728Z,91.99
2023-05-11T22:02:56.558Z,92.12
2023-05-11T22:05:26.649Z,91.56
2023-05-11T22:08:06.666Z,91.36
2023-05-11T22:10:43.534Z,91.54
2023-05-11T22:13:15.497Z,91.26
2023-05-11T22:15:44.827Z,90.92
2023-05-11T22:18:14.212Z,90.63
2023-05-11T22:20:43.568Z,90.80
2023-05-11T22:23:14.886Z,90.50
2023-05-11T22:25:45.053Z,90.59
2023-05-11T22:28:18.029Z,90.43
2023-05-11T22:30:47.767Z,90.81
2023-05-11T22:33:17.666Z,90.33
2023-05-11T22:35:47.560Z,89.72
2023-05-11T22:38:17.229Z,89.67
2023-05-11T22:40:46.938Z,90.08
2023-05-11T22:43:19.075Z,89.63
2023-05-11T22:45:48.979Z,89.57
2023-05-11T22:48:19.340Z,89.74
2023-05-11T22:50:49.336Z,89.46
2023-05-11T22:53:19.983Z,90.01
2023-05-11T22:55:49.919Z,89.72
2023-05-11T22:58:22.843Z,89.60
2023-05-11T23:00:56.000Z,90.21
2023-05-11T23:03:25.937Z,89.80
2023-05-11T23:05:56.084Z,89.46
2023-05-11T23:08:26.723Z,90.18
2023-05-11T23:10:56.670Z,90.85
2023-05-11T23:13:29.275Z,90.34
2023-05-11T23:15:58.746Z,90.31
2023-05-11T23:18:28.303Z,90.92
2023-05-11T23:20:58.656Z,90.93
2023-05-11T23:23:29.522Z,90.21
2023-05-11T23:25:59.186Z,89.96
2023-05-11T23:28:32.982Z,89.59
2023-05-11T23:31:04.359Z,90.29
2023-05-11T23:33:33.979Z,90.05
2023-05-11T23:36:05.097Z,89.86
2023-05-11T23:38:35.931Z,89.80
2023-05-11T23:41:06.481Z,90.20
2023-05-11T23:43:38.675Z,90.40
2023-05-11T23:46:08.645Z,90.50
2023-05-11T23:48:38.213Z,90.13
2023-05-11T23:51:07.731Z,89.67
2023-05-11T23:53:38.437Z,89.74
2023-05-11T23:56:08.998Z,89.60
2023-05-11T23:58:41.524Z,89.38
